createdAt,value
2022-09-16T00:01:14.613Z,83.80
2022-09-16T00:03:43.595Z,84.00
2022-09-16T00:06:20.879Z,83.90
2022-09-16T00:08:49.504Z,83.50
2022-09-16T00:11:18.369Z,83.80
2022-09-16T00:13:46.871Z,83.50
2022-09-16T00:16:19.752Z,83.20
2022-09-16T00:18:48.645Z,83.20
2022-09-16T00:21:18.303Z,83.20
2022-09-16T00:23:46.872Z,82.80
2022-09-16T00:26:15.808Z,82.60
2022-09-16T00:28:43.953Z,82.80
2022-09-16T00:31:12.475Z,82.70
2022-09-16T00:33:40.568Z,82.60
2022-09-16T00:36:11.170Z,82.30
2022-09-16T00:38:41.592Z,82.40
2022-09-16T00:41:14.846Z,82.50
2022-09-16T00:43:52.140Z,82.50
2022-09-16T00:46:24.568Z,82.20
2022-09-16T00:48:53.491Z,82.30
2022-09-16T00:51:22.490Z,82.30
2022-09-16T00:53:57.894Z,82.50
2022-09-16T00:56:29.211Z,82.60
2022-09-16T00:59:04.623Z,82.50
2022-09-16T01:01:33.537Z,82.30
2022-09-16T01:04:04.457Z,82.70
2022-09-16T01:06:37.054Z,82.60
2022-09-16T01:09:07.146Z,82.30
2022-09-16T01:11:35.603Z,82.10
2022-09-16T01:14:19.341Z,82.30
2022-09-16T01:16:58.640Z,82.60
2022-09-16T01:19:45.084Z,82.30
2022-09-16T01:22:27.265Z,82.10
2022-09-16T01:25:08.900Z,82.10
2022-09-16T01:27:52.712Z,82.10
2022-09-16T01:31:04.695Z,82.30
2022-09-16T01:33:43.272Z,82.30
2022-09-16T01:36:27.299Z,82.60
2022-09-16T01:39:09.410Z,82.30
2022-09-16T01:41:53.456Z,82.10
2022-09-16T01:44:27.043Z,82.20
2022-09-16T01:47:03.966Z,82.10
2022-09-16T01:49:41.151Z,81.90
2022-09-16T01:52:18.744Z,81.90
2022-09-16T01:54:50.725Z,81.90
2022-09-16T01:57:23.101Z,82.00
2022-09-16T01:59:55.452Z,82.10
2022-09-16T02:02:31.373Z,82.00
2022-09-16T02:05:02.535Z,81.90
2022-09-16T02:07:35.001Z,82.00
2022-09-16T02:10:10.307Z,81.50
2022-09-16T02:12:42.846Z,81.70
2022-09-16T02:18:11.845Z,81.80
2022-09-16T02:20:43.607Z,81.60
2022-09-16T02:23:15.935Z,81.90
2022-09-16T02:25:46.468Z,81.30
2022-09-16T02:28:20.010Z,81.50
2022-09-16T02:30:53.744Z,81.30
2022-09-16T02:33:25.526Z,81.40
2022-09-16T02:35:56.628Z,81.20
2022-09-16T02:38:27.485Z,81.00
2022-09-16T02:40:58.042Z,81.20
2022-09-16T02:43:27.294Z,81.20
2022-09-16T02:46:05.128Z,81.20
2022-09-16T02:48:43.774Z,80.70
2022-09-16T02:51:22.747Z,80.60
2022-09-16T02:53:56.107Z,80.50
2022-09-16T02:56:30.500Z,80.80
2022-09-16T02:58:58.749Z,81.00
2022-09-16T03:01:27.807Z,81.00
2022-09-16T03:03:57.763Z,81.00
2022-09-16T03:06:26.997Z,81.00
2022-09-16T03:08:59.639Z,81.10
2022-09-16T03:11:55.373Z,80.70
2022-09-16T03:14:38.685Z,80.20
2022-09-16T03:17:20.204Z,80.70
2022-09-16T03:20:00.196Z,80.80
2022-09-16T03:22:38.481Z,80.60
2022-09-16T03:25:13.212Z,81.00
2022-09-16T03:27:48.095Z,81.00
2022-09-16T03:30:16.386Z,80.80
2022-09-16T03:32:50.001Z,81.10
2022-09-16T03:35:26.647Z,80.90
2022-09-16T03:37:57.499Z,81.10
2022-09-16T03:40:27.217Z,81.30
2022-09-16T03:42:55.361Z,80.90
2022-09-16T03:45:23.788Z,80.90
2022-09-16T03:47:54.488Z,81.10
2022-09-16T03:50:23.963Z,81.30
2022-09-16T03:52:52.009Z,81.30
2022-09-16T03:55:20.030Z,81.40
2022-09-16T03:57:48.114Z,81.30
2022-09-16T04:00:16.587Z,81.30
2022-09-16T04:02:44.742Z,81.40
2022-09-16T04:05:12.899Z,81.30
2022-09-16T04:07:42.612Z,81.30
2022-09-16T04:10:12.433Z,81.30
2022-09-16T04:12:40.768Z,81.30
2022-09-16T04:15:09.623Z,81.20
2022-09-16T04:17:37.797Z,81.40
2022-09-16T04:20:07.589Z,81.60
2022-09-16T04:22:35.797Z,81.50
2022-09-16T04:25:05.723Z,81.50
2022-09-16T04:27:33.784Z,81.50
2022-09-16T04:30:01.927Z,81.50
2022-09-16T04:32:30.056Z,81.40
2022-09-16T04:34:58.155Z,81.30
2022-09-16T04:37:26.225Z,81.30
2022-09-16T04:39:54.480Z,81.50
2022-09-16T04:42:23.967Z,81.30
2022-09-16T04:44:52.162Z,81.00
2022-09-16T04:47:20.220Z,81.00
2022-09-16T04:49:48.309Z,81.10
2022-09-16T04:52:16.493Z,81.10
2022-09-16T04:54:44.561Z,81.10
2022-09-16T04:57:12.654Z,81.00
2022-09-16T04:59:42.161Z,81.20
2022-09-16T05:02:10.197Z,81.00
2022-09-16T05:04:38.282Z,81.00
2022-09-16T05:07:06.439Z,81.00
2022-09-16T05:09:34.553Z,81.00
2022-09-16T05:12:02.965Z,81.10
2022-09-16T05:14:31.233Z,81.10
2022-09-16T05:17:00.999Z,81.10
2022-09-16T05:19:29.580Z,81.20
2022-09-16T05:21:57.658Z,81.00
2022-09-16T05:24:25.793Z,80.70
2022-09-16T05:26:53.906Z,80.70
2022-09-16T05:29:22.138Z,80.90
2022-09-16T05:31:50.725Z,80.80
2022-09-16T05:34:21.485Z,80.50
2022-09-16T05:36:53.851Z,80.30
2022-09-16T05:39:24.227Z,80.20
2022-09-16T05:41:55.938Z,80.20
2022-09-16T05:44:24.336Z,80.20
2022-09-16T05:46:52.445Z,80.40
2022-09-16T05:49:22.018Z,80.30
2022-09-16T05:51:51.330Z,80.20
2022-09-16T05:54:20.237Z,80.40
2022-09-16T05:56:48.746Z,80.20
2022-09-16T05:59:17.786Z,80.20
2022-09-16T06:01:46.787Z,80.20
2022-09-16T06:04:16.727Z,80.20
2022-09-16T06:06:47.445Z,80.20
2022-09-16T06:09:17.624Z,80.10
2022-09-16T06:11:47.106Z,80.40
2022-09-16T06:14:16.889Z,81.20
2022-09-16T06:16:45.352Z,80.30
2022-09-16T06:19:15.219Z,80.20
2022-09-16T06:21:45.739Z,80.10
2022-09-16T06:24:15.441Z,80.10
2022-09-16T06:26:45.556Z,79.70
2022-09-16T06:29:14.349Z,80.00
2022-09-16T06:31:42.696Z,80.20
2022-09-16T06:34:16.394Z,80.10
2022-09-16T06:36:46.036Z,79.60
2022-09-16T06:39:15.533Z,79.70
2022-09-16T06:41:43.750Z,79.90
2022-09-16T06:44:12.167Z,79.90
2022-09-16T06:46:40.514Z,79.90
2022-09-16T06:49:11.120Z,79.80
2022-09-16T06:51:39.354Z,79.80
2022-09-16T06:54:09.521Z,79.80
2022-09-16T06:56:39.381Z,79.70
2022-09-16T06:59:07.654Z,79.50
2022-09-16T07:01:37.443Z,79.60
2022-09-16T07:04:08.243Z,79.70
2022-09-16T07:09:27.247Z,79.30
2022-09-16T07:11:55.533Z,79.30
2022-09-16T07:14:23.948Z,79.50
2022-09-16T07:16:52.098Z,79.50
2022-09-16T07:19:20.448Z,79.50
2022-09-16T07:21:48.524Z,79.40
2022-09-16T07:24:16.573Z,79.50
2022-09-16T07:26:46.872Z,79.40
2022-09-16T07:29:16.644Z,79.50
2022-09-16T07:31:45.095Z,79.40
2022-09-16T07:34:14.640Z,79.40
2022-09-16T07:36:44.516Z,79.00
2022-09-16T07:39:14.559Z,78.90
2022-09-16T07:41:44.256Z,78.80
2022-09-16T07:44:17.565Z,79.80
2022-09-16T07:46:45.685Z,78.90
2022-09-16T07:49:15.383Z,78.70
2022-09-16T07:51:43.657Z,78.80
2022-09-16T07:54:13.731Z,78.60
2022-09-16T07:56:42.922Z,78.60
2022-09-16T07:59:18.360Z,78.40
2022-09-16T08:01:47.504Z,77.90
2022-09-16T08:04:15.931Z,78.00
2022-09-16T08:06:44.012Z,78.00
2022-09-16T08:09:38.577Z,78.00
2022-09-16T08:12:02.665Z,78.00
2022-09-16T08:14:33.346Z,77.80
2022-09-16T08:17:02.150Z,77.50
2022-09-16T08:19:30.265Z,77.60
2022-09-16T08:21:58.373Z,77.10
2022-09-16T08:24:26.611Z,76.80
2022-09-16T08:26:57.645Z,76.90
2022-09-16T08:29:26.085Z,76.80
2022-09-16T08:31:55.569Z,76.70
2022-09-16T08:34:23.850Z,76.50
2022-09-16T08:36:52.259Z,76.40
2022-09-16T08:39:21.647Z,76.70
2022-09-16T08:42:25.716Z,76.50
2022-09-16T08:45:00.493Z,74.30
2022-09-16T08:47:42.172Z,75.80
2022-09-16T08:50:16.567Z,75.70
2022-09-16T08:52:46.477Z,75.70
2022-09-16T08:55:19.572Z,76.00
2022-09-16T08:57:56.880Z,75.60
2022-09-16T09:00:25.029Z,75.70
2022-09-16T09:02:58.340Z,75.90
2022-09-16T09:05:33.547Z,75.30
2022-09-16T09:08:15.438Z,75.60
2022-09-16T09:10:50.620Z,75.00
2022-09-16T09:13:39.817Z,75.20
2022-09-16T09:16:17.897Z,74.50
2022-09-16T09:18:56.548Z,75.40
2022-09-16T09:21:32.653Z,75.50
2022-09-16T09:24:30.406Z,75.60
2022-09-16T09:27:04.482Z,75.00
2022-09-16T09:29:52.378Z,75.10
2022-09-16T09:32:35.083Z,75.60
2022-09-16T09:35:29.538Z,74.50
2022-09-16T09:38:27.522Z,73.90
2022-09-16T09:41:01.048Z,73.40
2022-09-16T09:43:37.656Z,74.30
2022-09-16T09:46:11.658Z,73.80
2022-09-16T09:48:44.981Z,74.10
2022-09-16T09:51:19.714Z,73.80
2022-09-16T09:53:53.155Z,73.20
2022-09-16T09:56:25.452Z,72.70
2022-09-16T09:59:02.793Z,72.60
2022-09-16T10:01:30.881Z,72.50
2022-09-16T10:04:00.474Z,73.20
2022-09-16T10:06:33.937Z,73.30
2022-09-16T10:09:02.758Z,72.30
2022-09-16T10:11:33.157Z,72.30
2022-09-16T10:14:05.737Z,72.30
2022-09-16T10:16:37.340Z,72.30
2022-09-16T10:19:08.993Z,71.30
2022-09-16T10:21:46.131Z,71.30
2022-09-16T10:24:31.353Z,71.00
2022-09-16T10:27:02.837Z,70.10
2022-09-16T10:29:31.139Z,71.20
2022-09-16T10:32:07.759Z,71.00
2022-09-16T10:34:40.441Z,70.60
2022-09-16T10:37:19.269Z,70.80
2022-09-16T10:39:53.831Z,70.20
2022-09-16T10:42:23.940Z,69.80
2022-09-16T10:44:54.538Z,70.40
2022-09-16T10:47:24.689Z,70.50
2022-09-16T10:49:55.910Z,70.30
2022-09-16T10:52:27.447Z,69.50
2022-09-16T10:54:56.713Z,69.70
2022-09-16T10:57:30.490Z,69.60
2022-09-16T11:00:09.564Z,70.60
2022-09-16T11:03:00.703Z,70.70
2022-09-16T11:05:34.936Z,70.60
2022-09-16T11:08:14.037Z,70.60
2022-09-16T11:10:50.131Z,70.40
2022-09-16T11:13:40.943Z,70.20
2022-09-16T11:16:22.698Z,70.90
2022-09-16T11:18:59.901Z,70.40
2022-09-16T11:21:45.478Z,70.10
2022-09-16T11:24:33.083Z,71.00
2022-09-16T11:27:06.991Z,70.50
2022-09-16T11:29:53.568Z,71.20
2022-09-16T11:32:33.687Z,70.90
2022-09-16T11:35:28.197Z,71.10
2022-09-16T11:38:01.567Z,71.10
2022-09-16T11:40:38.590Z,71.50
2022-09-16T11:43:26.786Z,70.90
2022-09-16T11:46:05.072Z,70.20
2022-09-16T11:48:44.707Z,71.10
2022-09-16T11:51:24.075Z,70.60
2022-09-16T11:54:04.650Z,71.40
2022-09-16T11:56:39.389Z,71.70
2022-09-16T11:59:19.056Z,71.40
2022-09-16T12:01:51.529Z,71.00
2022-09-16T12:04:27.773Z,70.80
2022-09-16T12:07:02.593Z,71.30
2022-09-16T12:09:40.561Z,71.60
2022-09-16T12:12:15.332Z,72.00
2022-09-16T12:14:46.903Z,72.10
2022-09-16T12:17:20.758Z,70.90
2022-09-16T12:19:52.755Z,70.50
2022-09-16T12:22:27.052Z,70.70
2022-09-16T12:25:00.087Z,70.30
2022-09-16T12:27:40.793Z,69.40
2022-09-16T12:30:16.739Z,67.90
2022-09-16T12:32:54.092Z,67.40
2022-09-16T12:35:27.902Z,67.60
2022-09-16T12:37:58.286Z,67.70
2022-09-16T12:40:28.628Z,67.10
2022-09-16T12:43:30.493Z,67.40
2022-09-16T12:46:29.934Z,66.10
2022-09-16T12:49:30.823Z,66.30
2022-09-16T12:52:23.299Z,65.30
2022-09-16T12:55:34.283Z,65.80
2022-09-16T12:58:20.189Z,64.50
2022-09-16T13:00:59.830Z,64.00
2022-09-16T13:03:33.476Z,65.00
2022-09-16T13:06:17.137Z,66.50
2022-09-16T13:08:46.578Z,65.20
2022-09-16T13:14:23.019Z,65.20
2022-09-16T13:16:56.797Z,65.20
2022-09-16T13:19:41.208Z,65.80
2022-09-16T13:22:23.127Z,65.10
2022-09-16T13:24:56.499Z,65.00
2022-09-16T13:27:31.062Z,66.30
2022-09-16T13:30:31.016Z,66.20
2022-09-16T13:33:22.924Z,64.60
2022-09-16T13:36:15.008Z,65.10
2022-09-16T13:38:45.255Z,63.20
2022-09-16T13:41:16.074Z,64.30
2022-09-16T13:43:54.719Z,64.50
2022-09-16T13:46:36.021Z,59.60
2022-09-16T13:49:20.837Z,60.80
2022-09-16T13:51:51.956Z,60.40
2022-09-16T13:54:27.208Z,61.90
2022-09-16T13:57:14.733Z,61.70
2022-09-16T14:02:34.369Z,60.70
2022-09-16T14:05:21.416Z,61.00
2022-09-16T14:07:57.788Z,59.80
2022-09-16T14:10:33.926Z,60.70
2022-09-16T14:13:10.360Z,61.40
2022-09-16T14:15:42.912Z,62.30
2022-09-16T14:18:14.694Z,63.00
2022-09-16T14:20:57.273Z,62.80
2022-09-16T14:23:27.686Z,62.50
2022-09-16T14:25:55.778Z,62.60
2022-09-16T14:28:26.414Z,63.10
2022-09-16T14:30:56.899Z,64.10
2022-09-16T14:33:30.377Z,63.90
2022-09-16T14:35:59.400Z,64.30
2022-09-16T14:38:52.393Z,65.60
2022-09-16T14:41:27.038Z,66.00
2022-09-16T14:43:58.434Z,66.30
2022-09-16T14:46:27.594Z,66.00
2022-09-16T14:48:55.810Z,66.30
2022-09-16T14:51:27.138Z,66.60
2022-09-16T14:54:13.872Z,65.40
2022-09-16T14:56:42.556Z,64.20
2022-09-16T14:59:13.327Z,63.10
2022-09-16T15:01:42.877Z,62.90
2022-09-16T15:04:18.521Z,62.40
2022-09-16T15:06:53.178Z,61.10
2022-09-16T15:09:29.429Z,59.50
2022-09-16T15:12:01.395Z,58.80
2022-09-16T15:14:29.855Z,57.90
2022-09-16T15:17:02.925Z,57.70
2022-09-16T15:19:35.151Z,57.40
2022-09-16T15:22:04.651Z,56.90
2022-09-16T15:24:35.981Z,57.50
2022-09-16T15:27:05.031Z,57.50
2022-09-16T15:29:35.514Z,57.70
2022-09-16T15:32:22.939Z,58.00
2022-09-16T15:35:05.640Z,58.10
2022-09-16T15:37:35.635Z,58.40
2022-09-16T15:40:23.702Z,58.50
2022-09-16T15:43:13.419Z,57.00
2022-09-16T15:45:42.250Z,56.80
2022-09-16T15:48:17.684Z,57.00
2022-09-16T15:50:50.975Z,56.70
2022-09-16T15:53:24.136Z,57.30
2022-09-16T15:56:01.407Z,57.40
2022-09-16T15:58:40.338Z,55.70
2022-09-16T16:01:13.312Z,55.60
2022-09-16T16:03:57.103Z,57.00
2022-09-16T16:06:53.972Z,56.40
2022-09-16T16:09:34.620Z,56.10
2022-09-16T16:12:08.156Z,56.10
2022-09-16T16:14:37.819Z,56.90
2022-09-16T16:17:13.234Z,57.30
2022-09-16T16:19:43.421Z,57.30
2022-09-16T16:22:12.566Z,56.90
2022-09-16T16:24:40.976Z,57.00
2022-09-16T16:27:11.013Z,57.50
2022-09-16T16:29:39.387Z,58.10
2022-09-16T16:32:10.119Z,58.60
2022-09-16T16:34:40.710Z,58.50
2022-09-16T16:37:19.188Z,58.50
2022-09-16T16:39:56.674Z,58.20
2022-09-16T16:42:29.078Z,58.40
2022-09-16T16:44:57.545Z,58.20
2022-09-16T16:47:26.028Z,58.50
2022-09-16T16:49:54.065Z,58.50
2022-09-16T16:52:22.532Z,58.30
2022-09-16T16:54:50.582Z,58.50
2022-09-16T16:57:19.083Z,58.40
2022-09-16T16:59:48.953Z,58.60
2022-09-16T17:02:17.464Z,58.70
2022-09-16T17:04:45.977Z,59.20
2022-09-16T17:07:25.812Z,59.30
2022-09-16T17:09:55.443Z,59.50
2022-09-16T17:12:23.633Z,59.60
2022-09-16T17:14:53.528Z,59.70
2022-09-16T17:17:21.585Z,59.70
2022-09-16T17:19:50.327Z,59.80
2022-09-16T17:22:18.828Z,60.00
2022-09-16T17:24:47.290Z,60.00
2022-09-16T17:27:19.718Z,60.00
2022-09-16T17:29:48.228Z,60.20
2022-09-16T17:32:18.381Z,60.20
2022-09-16T17:34:46.476Z,60.40
2022-09-16T17:37:15.922Z,60.50
2022-09-16T17:39:43.936Z,60.70
2022-09-16T17:42:12.492Z,60.70
2022-09-16T17:44:40.594Z,60.70
2022-09-16T17:47:09.085Z,60.80
2022-09-16T17:49:38.966Z,61.00
2022-09-16T17:52:07.017Z,61.10
2022-09-16T17:54:35.475Z,61.30
2022-09-16T17:57:03.481Z,61.70
2022-09-16T17:59:32.018Z,61.70
2022-09-16T18:02:00.027Z,62.00
2022-09-16T18:04:28.528Z,62.10
2022-09-16T18:06:58.425Z,62.10
2022-09-16T18:09:26.521Z,62.00
2022-09-16T18:11:55.059Z,62.20
2022-09-16T18:14:23.686Z,62.20
2022-09-16T18:16:52.554Z,62.20
2022-09-16T18:19:20.709Z,62.30
2022-09-16T18:21:50.274Z,62.30
2022-09-16T18:24:20.078Z,62.80
2022-09-16T18:26:48.567Z,63.00
2022-09-16T18:29:16.825Z,62.80
2022-09-16T18:31:47.765Z,63.00
2022-09-16T18:34:17.436Z,63.00
2022-09-16T18:36:46.309Z,63.20
2022-09-16T18:39:15.794Z,63.20
2022-09-16T18:41:46.881Z,63.40
2022-09-16T18:44:16.994Z,63.80
2022-09-16T18:46:46.600Z,63.90
2022-09-16T18:49:16.532Z,63.90
2022-09-16T18:51:50.863Z,64.20
2022-09-16T18:54:25.225Z,64.20
2022-09-16T18:56:55.930Z,64.00
2022-09-16T18:59:27.259Z,64.20
2022-09-16T19:01:57.783Z,64.30
2022-09-16T19:04:28.298Z,64.40
2022-09-16T19:06:59.331Z,64.50
2022-09-16T19:09:27.467Z,64.50
2022-09-16T19:11:57.285Z,64.60
2022-09-16T19:14:27.423Z,64.70
2022-09-16T19:16:56.145Z,64.70
2022-09-16T19:19:24.646Z,64.80
2022-09-16T19:21:53.448Z,64.80
2022-09-16T19:24:24.133Z,65.20
2022-09-16T19:26:54.401Z,65.20
2022-09-16T19:29:24.639Z,65.20
2022-09-16T19:31:54.043Z,65.20
2022-09-16T19:34:23.040Z,65.40
2022-09-16T19:36:51.660Z,65.50
2022-09-16T19:39:21.192Z,65.60
2022-09-16T19:41:50.911Z,65.60
2022-09-16T19:44:19.520Z,65.60
2022-09-16T19:46:50.357Z,65.60
2022-09-16T19:49:20.868Z,65.60
2022-09-16T19:51:50.166Z,65.60
2022-09-16T19:54:18.613Z,65.80
2022-09-16T19:56:50.827Z,65.80
2022-09-16T19:59:20.342Z,65.80
2022-09-16T20:01:50.409Z,66.00
2022-09-16T20:04:20.501Z,66.00
2022-09-16T20:06:49.829Z,66.10
2022-09-16T20:09:18.110Z,66.10
2022-09-16T20:11:47.964Z,66.30
2022-09-16T20:14:19.432Z,66.50
2022-09-16T20:16:49.651Z,66.40
2022-09-16T20:19:20.021Z,66.30
2022-09-16T20:21:48.223Z,66.50
2022-09-16T20:24:18.612Z,66.40
2022-09-16T20:26:47.307Z,66.40
2022-09-16T20:29:17.804Z,66.30
2022-09-16T20:31:46.889Z,66.30
2022-09-16T20:34:17.058Z,66.00
2022-09-16T20:36:46.951Z,66.00
2022-09-16T20:39:15.684Z,66.10
2022-09-16T20:41:46.006Z,66.10
2022-09-16T20:44:15.689Z,66.10
2022-09-16T20:46:44.734Z,66.30
2022-09-16T20:49:18.560Z,66.10
2022-09-16T20:51:47.152Z,66.30
2022-09-16T20:54:16.637Z,66.40
2022-09-16T20:56:46.340Z,66.50
2022-09-16T20:59:17.507Z,66.40
2022-09-16T21:01:46.514Z,66.40
2022-09-16T21:04:18.177Z,66.40
2022-09-16T21:06:47.133Z,66.40
2022-09-16T21:09:18.360Z,66.60
2022-09-16T21:11:47.013Z,66.70
2022-09-16T21:14:16.807Z,66.80
2022-09-16T21:16:46.815Z,66.60
2022-09-16T21:19:17.893Z,66.80
2022-09-16T21:21:47.989Z,66.80
2022-09-16T21:24:16.506Z,67.00
2022-09-16T21:26:45.826Z,67.10
2022-09-16T21:29:15.572Z,67.20
2022-09-16T21:31:44.369Z,67.30
2022-09-16T21:34:15.348Z,67.40
2022-09-16T21:36:45.858Z,67.60
2022-09-16T21:39:15.071Z,67.90
2022-09-16T21:41:44.336Z,67.90
2022-09-16T21:44:13.111Z,68.00
2022-09-16T21:46:45.653Z,68.10
2022-09-16T21:49:23.158Z,68.20
2022-09-16T21:51:53.965Z,68.30
2022-09-16T21:54:23.117Z,68.30
2022-09-16T21:56:52.082Z,68.50
2022-09-16T21:59:20.710Z,68.50
2022-09-16T22:01:50.280Z,68.60
2022-09-16T22:04:20.568Z,68.40
2022-09-16T22:06:50.193Z,68.60
2022-09-16T22:09:19.973Z,68.50
2022-09-16T22:11:48.636Z,68.80
2022-09-16T22:14:17.287Z,68.80
2022-09-16T22:16:46.020Z,68.80
2022-09-16T22:19:16.732Z,68.80
2022-09-16T22:21:48.006Z,69.00
2022-09-16T22:24:20.685Z,69.00
2022-09-16T22:26:51.573Z,69.00
2022-09-16T22:29:20.130Z,69.20
2022-09-16T22:31:48.639Z,69.20
2022-09-16T22:34:17.992Z,69.20
2022-09-16T22:36:46.064Z,69.30
2022-09-16T22:39:16.305Z,69.40
2022-09-16T22:41:45.031Z,69.40
2022-09-16T22:44:15.267Z,69.40
2022-09-16T22:46:46.284Z,69.50
2022-09-16T22:49:15.428Z,69.40
2022-09-16T22:51:44.433Z,69.60
2022-09-16T22:54:14.256Z,69.60
2022-09-16T22:56:43.539Z,69.40
2022-09-16T22:59:19.580Z,69.40
2022-09-16T23:01:48.067Z,69.50
2022-09-16T23:04:16.579Z,69.60
2022-09-16T23:06:44.713Z,69.50
2022-09-16T23:09:15.089Z,69.50
2022-09-16T23:11:43.819Z,69.60
2022-09-16T23:14:15.037Z,69.50
2022-09-16T23:16:44.430Z,69.60
2022-09-16T23:19:13.764Z,69.70
2022-09-16T23:21:42.828Z,69.70
2022-09-16T23:24:15.862Z,69.60
2022-09-16T23:26:45.044Z,69.60
2022-09-16T23:29:14.871Z,69.50
2022-09-16T23:31:45.344Z,69.60
2022-09-16T23:34:16.040Z,69.60
2022-09-16T23:36:44.213Z,69.70
2022-09-16T23:39:15.532Z,69.80
2022-09-16T23:41:44.730Z,69.80
2022-09-16T23:44:15.163Z,69.70
2022-09-16T23:46:45.670Z,69.80
2022-09-16T23:49:16.936Z,69.90
2022-09-16T23:51:45.564Z,69.80
2022-09-16T23:54:14.359Z,70.00
2022-09-16T23:56:43.836Z,70.00
2022-09-16T23:59:12.396Z,70.30
